Time;durP1;ratioP1;P1;durP2;ratioP2;P2;SDS_P1;SDS_P2;PMS_P1;PMS_P2;Temp;Humidity;BMP_temperature;BMP_pressure;BME280_temperature;BME280_humidity;BME280_pressure;Samples;Min_cycle;Max_cycle;Signal;HPM_P1;HPM_P2
2022/08/19 00:01:27;;;;;;;4.82;2.58;;;12.90;99.90;;;;;;5025826;28;20046;-45
2022/08/19 00:03:53;;;;;;;5.55;2.42;;;12.60;99.90;;;;;;5025876;28;20706;-45
2022/08/19 00:06:18;;;;;;;4.72;2.83;;;13.00;99.90;;;;;;5026212;28;20048;-45
2022/08/19 00:08:44;;;;;;;7.78;3.50;;;12.90;99.90;;;;;;5025755;28;20041;-45
2022/08/19 00:11:11;;;;;;;6.47;3.70;;;13.20;99.90;;;;;;5026004;28;20061;-46
2022/08/19 00:13:38;;;;;;;4.32;2.38;;;12.60;99.90;;;;;;5025950;28;20049;-44
2022/08/19 00:16:05;;;;;;;4.63;1.60;;;12.50;99.90;;;;;;5026350;28;20052;-44
2022/08/19 00:18:32;;;;;;;32.72;2.55;;;12.70;99.90;;;;;;5026555;28;20118;-44
2022/08/19 00:20:59;;;;;;;186.73;9.00;;;13.00;99.90;;;;;;5026341;28;20041;-44
2022/08/19 00:23:25;;;;;;;75.45;2.83;;;12.50;99.90;;;;;;5026365;28;20139;-44
2022/08/19 00:25:51;;;;;;;73.65;3.10;;;12.40;99.90;;;;;;5025820;28;20073;-45
2022/08/19 00:28:18;;;;;;;52.17;2.08;;;12.50;99.90;;;;;;5025975;28;20508;-44
2022/08/19 00:30:43;;;;;;;3.15;1.20;;;12.60;99.90;;;;;;5029715;28;20037;-44
2022/08/19 00:33:09;;;;;;;3.50;1.63;;;12.50;99.90;;;;;;5030085;28;20404;-44
2022/08/19 00:35:37;;;;;;;2.97;1.45;;;12.70;99.90;;;;;;5029963;28;20491;-44
2022/08/19 00:38:03;;;;;;;4.05;1.63;;;12.30;99.90;;;;;;5030080;28;20084;-44
2022/08/19 00:40:30;;;;;;;2.15;0.82;;;12.60;99.90;;;;;;5030040;28;20067;-44
2022/08/19 00:42:56;;;;;;;4.90;1.15;;;12.80;99.90;;;;;;5029272;28;20533;-44
2022/08/19 00:45:26;;;;;;;4.20;1.73;;;12.50;99.90;;;;;;5029185;28;20103;-45
2022/08/19 00:47:52;;;;;;;5.10;1.92;;;12.50;99.90;;;;;;5028588;28;20072;-45
2022/08/19 00:50:20;;;;;;;8.70;2.20;;;12.20;99.90;;;;;;5028634;28;20037;-44
2022/08/19 00:52:48;;;;;;;11.50;2.90;;;12.10;99.90;;;;;;5027716;28;20041;-44
2022/08/19 00:55:21;;;;;;;6.68;4.22;;;12.90;99.90;;;;;;5027916;28;20383;-44
2022/08/19 00:57:57;;;;;;;17.25;6.72;;;12.20;99.90;;;;;;5028250;28;20033;-44
2022/08/19 01:00:25;;;;;;;7.25;3.85;;;12.10;99.90;;;;;;5028151;28;20387;-45
2022/08/19 01:02:52;;;;;;;6.72;3.00;;;12.10;99.90;;;;;;5027737;28;20042;-44
2022/08/19 01:05:22;;;;;;;5.13;2.13;;;12.40;99.90;;;;;;5027861;28;20724;-45
2022/08/19 01:07:50;;;;;;;6.90;2.08;;;12.00;99.90;;;;;;5027476;28;20506;-44
2022/08/19 01:10:21;;;;;;;2.05;0.82;;;12.20;99.90;;;;;;5027108;28;20561;-44
2022/08/19 01:12:48;;;;;;;1.55;0.60;;;12.10;99.90;;;;;;5028920;28;20051;-44
2022/08/19 01:15:18;;;;;;;4.03;0.63;;;12.60;99.90;;;;;;5028895;28;20055;-44
2022/08/19 01:17:45;;;;;;;1.98;0.88;;;12.10;99.90;;;;;;5028975;28;20057;-44
2022/08/19 01:20:15;;;;;;;6.80;0.35;;;11.70;99.90;;;;;;5028809;28;20555;-45
2022/08/19 01:22:53;;;;;;;2.33;0.40;;;11.70;99.90;;;;;;5029231;28;20045;-44
2022/08/19 01:25:24;;;;;;;1.88;0.77;;;11.70;99.90;;;;;;5028560;28;20075;-45
2022/08/19 01:27:50;;;;;;;36.30;2.13;;;11.60;99.90;;;;;;5028661;28;20522;-44
2022/08/19 01:30:26;;;;;;;21.77;1.73;;;11.60;99.90;;;;;;5028775;28;20041;-44
2022/08/19 01:32:53;;;;;;;8.13;0.75;;;11.60;99.90;;;;;;5029002;28;20049;-44
2022/08/19 01:35:20;;;;;;;15.88;0.80;;;11.60;99.90;;;;;;5028705;28;20547;-45
2022/08/19 01:38:25;;;;;;;18.23;0.77;;;11.60;99.90;;;;;;5028628;28;20052;-44
2022/08/19 01:40:52;;;;;;;9.02;0.82;;;11.50;99.90;;;;;;5014305;28;20549;-44
2022/08/19 01:43:18;;;;;;;2.50;0.50;;;11.50;99.90;;;;;;5028475;28;20044;-44
2022/08/19 01:45:45;;;;;;;6.72;1.48;;;11.50;99.90;;;;;;5028192;28;20566;-45
2022/08/19 01:48:11;;;;;;;5.03;1.33;;;11.50;99.90;;;;;;5028205;28;20450;-44
2022/08/19 01:50:37;;;;;;;3.65;2.08;;;12.30;99.90;;;;;;5028502;28;20072;-44
2022/08/19 01:53:06;;;;;;;4.63;2.13;;;12.20;99.90;;;;;;5010816;28;20394;-44
2022/08/19 01:55:32;;;;;;;11.07;2.53;;;11.50;99.90;;;;;;5028581;28;20068;-44
2022/08/19 01:58:01;;;;;;;6.55;3.25;;;12.30;99.90;;;;;;5028832;28;20096;-44
2022/08/19 02:00:31;;;;;;;4.38;3.03;;;11.70;99.90;;;;;;5028720;28;20454;-44
2022/08/19 02:02:56;;;;;;;6.60;3.00;;;11.80;99.90;;;;;;5028158;28;20075;-45
2022/08/19 02:05:22;;;;;;;7.55;4.90;;;11.50;99.90;;;;;;5028434;28;20219;-45
2022/08/19 02:07:48;;;;;;;5.38;3.90;;;11.50;99.90;;;;;;5026522;28;20454;-45
2022/08/19 02:10:18;;;;;;;5.93;3.70;;;11.40;99.90;;;;;;5028128;28;20069;-44
2022/08/19 02:12:45;;;;;;;4.70;2.50;;;11.40;99.90;;;;;;5028692;28;20510;-44
2022/08/19 02:15:11;;;;;;;3.65;2.28;;;12.20;99.90;;;;;;5027904;28;20052;-45
2022/08/19 02:17:37;;;;;;;7.65;2.95;;;11.40;99.90;;;;;;5028244;28;20120;-45
2022/08/19 02:20:04;;;;;;;3.13;1.95;;;11.50;99.90;;;;;;5027797;28;20121;-44
2022/08/19 02:22:30;;;;;;;6.03;2.28;;;11.40;99.90;;;;;;5028025;28;20048;-45
2022/08/19 02:24:56;;;;;;;3.90;2.03;;;11.40;99.90;;;;;;5027859;28;20050;-44
2022/08/19 02:27:22;;;;;;;3.80;1.98;;;11.40;99.90;;;;;;5027624;28;20053;-45
2022/08/19 02:29:50;;;;;;;4.88;2.00;;;11.90;99.90;;;;;;5027660;28;20475;-44
2022/08/19 02:32:18;;;;;;;8.88;4.70;;;11.40;99.90;;;;;;5028021;28;20056;-44
2022/08/19 02:34:43;;;;;;;6.75;3.65;;;11.40;99.90;;;;;;5027933;28;20056;-44
2022/08/19 02:38:24;;;;;;;10.30;5.32;;;11.40;99.90;;;;;;5027722;28;20472;-44
2022/08/19 02:39:55;;;;;;;3.63;1.58;;;11.50;99.90;;;;;;5027249;28;20088;-45
2022/08/19 02:42:20;;;;;;;3.65;1.58;;;11.70;99.90;;;;;;5028026;28;20419;-45
2022/08/19 02:44:46;;;;;;;21.25;6.20;;;11.60;99.90;;;;;;5027700;28;20434;-44
2022/08/19 02:47:14;;;;;;;25.27;5.72;;;11.60;99.90;;;;;;5009631;28;20075;-44
2022/08/19 02:49:39;;;;;;;41.53;4.47;;;11.80;99.90;;;;;;5027202;28;20636;-44
2022/08/19 02:52:05;;;;;;;30.30;4.80;;;11.60;99.90;;;;;;5026482;28;20141;-44
2022/08/19 02:54:31;;;;;;;71.38;6.80;;;11.60;99.90;;;;;;5027315;28;20045;-44
2022/08/19 02:56:56;;;;;;;60.25;5.15;;;11.60;99.90;;;;;;5027046;28;20041;-44
2022/08/19 02:59:22;;;;;;;76.05;6.53;;;11.50;99.90;;;;;;5027464;28;20045;-45
2022/08/19 03:01:48;;;;;;;74.25;6.68;;;11.50;99.90;;;;;;5027128;28;20046;-45
2022/08/19 03:04:15;;;;;;;51.13;5.10;;;11.30;99.90;;;;;;5026678;28;20395;-44
2022/08/19 03:06:43;;;;;;;31.45;5.18;;;11.50;99.90;;;;;;5026722;28;20152;-44
2022/08/19 03:09:09;;;;;;;78.60;6.50;;;9.40;99.90;;;;;;5026696;28;20537;-44
2022/08/19 03:11:35;;;;;;;154.63;11.85;;;11.50;99.90;;;;;;5026573;28;20061;-44
2022/08/19 03:14:03;;;;;;;116.13;8.20;;;11.50;99.90;;;;;;5026821;28;20045;-45
2022/08/19 03:16:31;;;;;;;35.92;6.18;;;11.70;99.90;;;;;;5027115;28;20372;-44
2022/08/19 03:19:00;;;;;;;66.18;8.80;;;11.40;99.90;;;;;;5027087;28;20037;-44
2022/08/19 03:21:29;;;;;;;36.38;6.50;;;11.40;99.90;;;;;;5026783;28;20041;-45
2022/08/19 03:23:56;;;;;;;39.60;7.05;;;11.40;99.90;;;;;;5026600;28;20040;-44
2022/08/19 03:26:22;;;;;;;38.20;5.95;;;11.40;99.90;;;;;;5026284;28;20103;-44
2022/08/19 03:28:49;;;;;;;69.47;7.35;;;11.40;99.90;;;;;;5027069;28;20049;-44
2022/08/19 03:31:17;;;;;;;70.10;7.75;;;11.40;99.90;;;;;;5026633;28;20053;-44
2022/08/19 03:33:44;;;;;;;19.45;5.80;;;11.40;99.90;;;;;;5026493;28;20051;-44
2022/08/19 03:36:20;;;;;;;38.05;5.93;;;11.30;99.90;;;;;;5026250;28;20041;-46
2022/08/19 03:38:58;;;;;;;19.42;6.35;;;11.30;99.90;;;;;;5026316;28;20037;-44
2022/08/19 03:41:46;;;;;;;24.50;6.63;;;11.30;99.90;;;;;;5026407;28;20479;-45
2022/08/19 03:44:22;;;;;;;20.02;6.78;;;11.70;99.90;;;;;;5025506;28;20472;-45
2022/08/19 03:46:52;;;;;;;45.42;7.55;;;11.80;99.90;;;;;;5026762;28;20068;-44
2022/08/19 03:49:19;;;;;;;85.75;11.10;;;11.30;99.90;;;;;;5026560;28;20525;-44
2022/08/19 03:51:47;;;;;;;31.35;7.03;;;11.90;99.90;;;;;;5026125;28;20037;-45
2022/08/19 03:54:14;;;;;;;77.30;9.43;;;11.30;99.90;;;;;;5026381;28;20049;-45
2022/08/19 03:56:43;;;;;;;57.92;8.70;;;11.30;99.90;;;;;;5026585;28;20068;-44
2022/08/19 03:59:11;;;;;;;147.07;12.07;;;12.10;99.90;;;;;;5026558;28;20052;-44
2022/08/19 04:01:37;;;;;;;141.90;12.20;;;11.30;99.90;;;;;;5026628;28;20148;-45
2022/08/19 04:04:03;;;;;;;97.43;11.98;;;12.10;99.90;;;;;;5026497;28;20125;-44
2022/08/19 04:06:31;;;;;;;39.63;8.38;;;11.30;99.90;;;;;;5026357;28;20529;-44
2022/08/19 04:08:59;;;;;;;32.55;8.27;;;11.80;99.90;;;;;;5026555;28;20049;-45
2022/08/19 04:11:35;;;;;;;62.50;11.10;;;11.50;99.90;;;;;;5025853;28;20065;-44
2022/08/19 04:14:01;;;;;;;19.00;8.25;;;11.40;99.90;;;;;;5026441;28;20052;-45
2022/08/19 04:16:31;;;;;;;23.20;9.48;;;11.40;99.90;;;;;;5026254;28;20030;-44
2022/08/19 04:18:59;;;;;;;24.70;9.80;;;11.40;99.90;;;;;;5026440;28;20041;-45
2022/08/19 04:21:26;;;;;;;22.92;9.13;;;11.30;99.90;;;;;;5026424;28;20048;-45
2022/08/19 04:23:53;;;;;;;67.25;10.10;;;11.40;99.90;;;;;;5026498;28;20040;-44
2022/08/19 04:26:25;;;;;;;60.35;10.05;;;11.30;99.90;;;;;;5026147;28;20046;-44
2022/08/19 04:28:52;;;;;;;46.10;8.70;;;11.30;99.90;;;;;;5026185;28;20037;-44
2022/08/19 04:31:20;;;;;;;12.55;7.93;;;11.30;99.90;;;;;;5026190;28;20132;-44
2022/08/19 04:33:46;;;;;;;25.48;8.90;;;11.20;99.90;;;;;;5026047;28;20037;-44
2022/08/19 04:36:26;;;;;;;13.13;7.70;;;11.20;99.90;;;;;;5026123;28;20049;-44
2022/08/19 04:38:55;;;;;;;18.48;9.18;;;11.20;99.90;;;;;;5026185;28;20033;-44
2022/08/19 04:44:05;;;;;;;20.30;8.68;;;12.10;99.90;;;;;;5026003;28;20080;-45
2022/08/19 04:46:31;;;;;;;135.93;15.65;;;11.30;99.90;;;;;;5025761;28;20077;-44
2022/08/19 04:49:02;;;;;;;88.20;11.70;;;11.80;99.90;;;;;;5026198;28;20045;-45
2022/08/19 04:51:30;;;;;;;161.02;13.82;;;11.30;99.90;;;;;;5026130;28;20044;-44
2022/08/19 04:53:56;;;;;;;195.35;14.75;;;11.30;99.90;;;;;;5026179;28;20088;-44
2022/08/19 04:56:22;;;;;;;31.50;7.15;;;11.40;99.90;;;;;;5025785;28;20034;-44
2022/08/19 04:58:51;;;;;;;106.55;10.57;;;11.30;99.90;;;;;;5025827;28;20403;-44
2022/08/19 05:01:26;;;;;;;61.95;8.73;;;11.30;99.90;;;;;;5026015;28;20045;-45
2022/08/19 05:03:52;;;;;;;33.65;6.32;;;11.60;99.90;;;;;;5025716;28;20049;-45
2022/08/19 05:06:20;;;;;;;130.05;11.38;;;11.30;99.90;;;;;;5025473;28;20073;-44
2022/08/19 05:08:46;;;;;;;68.07;7.53;;;11.70;99.90;;;;;;5025803;28;20167;-44
2022/08/19 05:11:33;;;;;;;107.43;10.77;;;11.30;99.90;;;;;;5025371;28;20239;-44
2022/08/19 05:13:58;;;;;;;25.83;8.60;;;11.70;99.90;;;;;;5025951;28;20042;-44
2022/08/19 05:16:26;;;;;;;37.28;8.43;;;11.40;99.90;;;;;;5028587;28;20410;-44
2022/08/19 05:24:22;;;;;;;109.25;9.05;;;11.50;99.90;;;;;;5028982;28;20165;-44
2022/08/19 05:26:50;;;;;;;16.88;7.68;;;11.60;99.90;;;;;;5028913;28;20083;-44
2022/08/19 05:29:19;;;;;;;22.38;8.75;;;11.80;99.90;;;;;;5029283;28;20044;-44
2022/08/19 05:31:46;;;;;;;15.60;8.60;;;12.60;99.90;;;;;;5029945;28;20044;-44
2022/08/19 05:34:11;;;;;;;23.20;10.18;;;12.10;99.90;;;;;;5029328;28;20046;-44
2022/08/19 05:36:41;;;;;;;17.55;9.23;;;12.20;99.90;;;;;;5028649;28;20041;-44
2022/08/19 05:39:09;;;;;;;14.32;8.27;;;12.30;99.90;;;;;;5028783;28;20140;-44
2022/08/19 05:41:35;;;;;;;11.63;6.45;;;12.60;99.90;;;;;;5028323;28;20045;-44
2022/08/19 05:44:06;;;;;;;13.70;8.40;;;13.40;99.90;;;;;;5028420;28;20052;-44
2022/08/19 05:46:32;;;;;;;8.73;6.60;;;14.50;99.90;;;;;;5028607;28;20051;-44
2022/08/19 05:48:58;;;;;;;9.10;6.25;;;16.10;99.90;;;;;;5029108;28;20495;-44
2022/08/19 05:51:25;;;;;;;11.07;6.60;;;17.30;99.90;;;;;;5028524;28;20076;-44
2022/08/19 05:53:51;;;;;;;8.27;6.63;;;18.10;99.90;;;;;;5028371;28;20128;-44
2022/08/19 05:56:17;;;;;;;13.27;8.98;;;18.30;99.90;;;;;;5028323;28;20045;-45
2022/08/19 05:58:44;;;;;;;13.65;10.57;;;18.30;99.90;;;;;;5028281;28;20085;-46
2022/08/19 06:01:16;;;;;;;16.50;11.88;;;18.80;99.90;;;;;;5027933;28;20476;-45
2022/08/19 06:03:43;;;;;;;16.48;13.13;;;19.10;99.90;;;;;;5028311;28;20045;-45
2022/08/19 06:06:11;;;;;;;13.00;11.60;;;20.00;99.90;;;;;;5028018;28;20152;-45
2022/08/19 06:08:38;;;;;;;12.57;9.13;;;19.40;99.90;;;;;;5027547;28;20107;-45
2022/08/19 06:11:13;;;;;;;9.88;8.55;;;19.30;99.90;;;;;;5027693;28;20064;-45
2022/08/19 06:13:38;;;;;;;10.32;9.25;;;19.30;99.90;;;;;;5027319;28;20045;-45
2022/08/19 06:16:04;;;;;;;11.70;8.52;;;20.40;99.90;;;;;;5026062;28;20128;-44
2022/08/19 06:18:30;;;;;;;8.60;7.68;;;20.00;99.90;;;;;;5027612;28;20041;-44
2022/08/19 06:20:55;;;;;;;9.05;7.93;;;21.20;99.90;;;;;;5027941;28;20056;-44
2022/08/19 06:23:21;;;;;;;11.40;10.25;;;21.20;99.90;;;;;;5027765;28;20076;-45
2022/08/19 06:25:47;;;;;;;11.55;10.05;;;20.60;99.90;;;;;;5027603;28;20045;-45
2022/08/19 06:28:13;;;;;;;10.98;9.55;;;20.30;99.90;;;;;;5027100;28;20526;-45
2022/08/19 06:30:38;;;;;;;12.68;8.95;;;20.20;99.90;;;;;;5026230;28;20879;-45
2022/08/19 06:33:04;;;;;;;10.20;9.10;;;20.00;99.90;;;;;;5027957;28;20107;-45
2022/08/19 06:35:30;;;;;;;10.38;9.32;;;20.10;99.90;;;;;;5027684;28;20049;-45
2022/08/19 06:37:55;;;;;;;12.02;10.52;;;20.60;99.90;;;;;;5027889;28;20284;-45
2022/08/19 06:40:21;;;;;;;11.90;10.55;;;20.70;99.90;;;;;;5027810;28;20073;-45
2022/08/19 06:42:47;;;;;;;11.73;10.07;;;20.80;99.90;;;;;;5027522;28;20540;-45
2022/08/19 06:45:13;;;;;;;10.77;9.77;;;22.30;99.90;;;;;;5027719;28;20053;-45
2022/08/19 06:47:38;;;;;;;10.45;9.45;;;23.90;99.90;;;;;;5009034;28;20045;-46
2022/08/19 06:50:04;;;;;;;11.95;9.23;;;24.40;99.90;;;;;;5027277;28;20100;-45
2022/08/19 06:52:34;;;;;;;11.10;9.50;;;24.70;99.90;;;;;;5027357;28;20041;-45
2022/08/19 06:55:01;;;;;;;9.45;8.45;;;25.50;99.90;;;;;;5027911;28;20126;-45
2022/08/19 06:57:31;;;;;;;10.00;7.43;;;26.30;99.90;;;;;;5027342;28;20033;-45
2022/08/19 06:59:56;;;;;;;7.47;6.45;;;26.80;99.90;;;;;;5027333;28;20049;-45
2022/08/19 07:02:26;;;;;;;6.45;4.65;;;27.00;97.80;;;;;;5027295;28;20230;-44
2022/08/19 07:04:52;;;;;;;6.88;5.53;;;26.10;99.00;;;;;;5027783;28;20228;-44
2022/08/19 07:07:20;;;;;;;7.10;6.35;;;25.70;99.90;;;;;;5027155;28;20538;-44
2022/08/19 07:09:46;;;;;;;5.47;4.93;;;26.50;97.80;;;;;;5026951;28;20437;-44
2022/08/19 07:12:16;;;;;;;6.47;5.78;;;27.00;96.60;;;;;;5026583;28;20056;-45
2022/08/19 07:14:44;;;;;;;9.27;5.55;;;26.40;96.30;;;;;;5026677;28;20052;-44
2022/08/19 07:17:11;;;;;;;6.50;4.40;;;25.40;97.80;;;;;;5026759;28;20053;-44
2022/08/19 07:19:38;;;;;;;6.10;4.38;;;24.70;99.20;;;;;;5026748;28;20037;-44
2022/08/19 07:22:06;;;;;;;8.98;6.45;;;24.40;99.80;;;;;;5026084;28;20491;-44
2022/08/19 07:24:33;;;;;;;7.03;6.35;;;23.90;99.90;;;;;;5026766;28;20534;-44
2022/08/19 07:27:02;;;;;;;7.28;6.43;;;23.60;99.90;;;;;;5026424;28;20049;-45
2022/08/19 07:29:33;;;;;;;7.43;6.65;;;23.30;99.90;;;;;;5026253;28;20041;-46
2022/08/19 07:32:00;;;;;;;6.47;5.85;;;23.00;99.90;;;;;;5026684;28;20128;-45
2022/08/19 07:34:28;;;;;;;7.55;6.72;;;22.80;99.90;;;;;;5026476;28;20049;-45
2022/08/19 07:36:55;;;;;;;8.50;6.80;;;22.60;99.90;;;;;;5026370;28;20125;-46
2022/08/19 07:39:31;;;;;;;8.73;7.40;;;22.40;99.90;;;;;;5024750;28;20574;-45
2022/08/19 07:41:58;;;;;;;9.45;7.22;;;22.20;99.90;;;;;;5008386;28;20542;-45
2022/08/19 07:44:24;;;;;;;8.88;6.50;;;22.20;99.90;;;;;;5026457;28;20049;-45
2022/08/19 07:46:55;;;;;;;9.75;7.65;;;22.20;99.90;;;;;;5026198;28;20060;-45
2022/08/19 07:49:22;;;;;;;9.38;7.07;;;22.20;99.90;;;;;;5026596;28;20248;-46
2022/08/19 07:51:58;;;;;;;11.70;7.38;;;22.30;99.90;;;;;;5025738;28;20037;-46
2022/08/19 07:54:25;;;;;;;9.05;7.30;;;22.60;99.90;;;;;;5026553;28;20049;-45
2022/08/19 07:56:52;;;;;;;9.65;6.18;;;23.30;99.90;;;;;;5026607;28;20041;-47
2022/08/19 07:59:19;;;;;;;6.40;4.78;;;24.00;99.90;;;;;;5026294;28;20042;-46
2022/08/19 08:01:44;;;;;;;7.82;5.50;;;23.70;99.90;;;;;;5025680;28;20503;-47
2022/08/19 08:09:42;;;;;;;6.70;4.35;;;23.70;99.90;;;;;;5025837;28;20803;-47
2022/08/19 08:12:31;;;;;;;5.78;5.20;;;24.00;99.90;;;;;;5026167;28;20065;-46
2022/08/19 08:15:04;;;;;;;6.38;5.00;;;24.30;99.90;;;;;;5025651;28;20053;-47
2022/08/19 08:17:31;;;;;;;8.95;5.88;;;24.70;99.90;;;;;;5026149;28;20792;-46
2022/08/19 08:19:58;;;;;;;5.20;3.72;;;25.10;99.90;;;;;;5025898;28;20073;-45
2022/08/19 08:25:19;;;;;;;6.90;5.35;;;26.70;99.90;;;;;;5026154;28;20052;-46
2022/08/19 08:27:46;;;;;;;8.38;5.47;;;29.20;97.50;;;;;;5025716;28;20570;-46
2022/08/19 08:30:15;;;;;;;7.82;6.22;;;30.90;92.40;;;;;;5026269;28;20439;-46
2022/08/19 08:32:42;;;;;;;6.97;5.60;;;31.50;89.90;;;;;;5025886;28;20056;-46
2022/08/19 08:35:10;;;;;;;9.40;5.45;;;31.10;89.20;;;;;;5026098;28;20151;-46
2022/08/19 08:37:36;;;;;;;5.75;4.18;;;31.10;89.10;;;;;;5025618;28;20127;-46
2022/08/19 08:40:30;;;;;;;6.53;5.00;;;31.00;88.10;;;;;;5025844;28;20121;-47
2022/08/19 08:43:30;;;;;;;8.15;6.10;;;31.50;86.50;;;;;;5010967;28;20688;-46
2022/08/19 08:46:17;;;;;;;7.78;5.45;;;33.70;84.90;;;;;;4994299;28;20110;-46
2022/08/19 08:48:58;;;;;;;5.07;2.63;;;35.20;80.50;;;;;;5008758;28;20103;-47
2022/08/19 08:51:34;;;;;;;5.27;3.37;;;36.50;74.70;;;;;;5030420;28;20081;-46
2022/08/19 08:54:04;;;;;;;4.28;3.55;;;37.50;67.40;;;;;;5030985;28;20078;-59
2022/08/19 08:56:32;;;;;;;4.85;3.90;;;;;;;;;;5030631;28;20128;-59
2022/08/19 08:59:20;;;;;;;6.43;3.33;;;38.90;65.20;;;;;;5030272;28;20059;-59
2022/08/19 09:01:46;;;;;;;5.50;3.50;;;39.50;63.10;;;;;;5030562;28;20045;-59
2022/08/19 09:04:13;;;;;;;3.95;3.55;;;40.10;61.20;;;;;;5030230;28;20123;-55
2022/08/19 09:07:15;;;;;;;3.17;2.65;;;40.50;59.80;;;;;;5030866;28;20080;-59
2022/08/19 09:09:48;;;;;;;2.20;1.30;;;40.80;60.30;;;;;;5031596;28;20049;-61
2022/08/19 09:12:51;;;;;;;3.90;1.30;;;41.00;57.80;;;;;;5029600;28;20172;-62
2022/08/19 09:15:23;;;;;;;2.20;0.68;;;41.40;58.20;;;;;;5030137;28;20132;-59
2022/08/19 09:17:48;;;;;;;2.00;0.88;;;41.90;55.40;;;;;;5030117;28;20045;-60
2022/08/19 09:20:17;;;;;;;1.88;0.68;;;42.20;53.80;;;;;;5030614;28;20057;-60
2022/08/19 09:22:43;;;;;;;2.55;1.27;;;42.20;51.60;;;;;;5030166;28;20136;-60
2022/08/19 09:25:12;;;;;;;2.45;0.80;;;42.30;50.20;;;;;;5030142;28;20042;-60
2022/08/19 09:27:39;;;;;;;2.85;1.40;;;42.70;51.50;;;;;;5029940;28;20049;-60
2022/08/19 09:30:07;;;;;;;4.88;1.52;;;42.90;51.20;;;;;;5029143;28;20120;-60
2022/08/19 09:32:33;;;;;;;3.05;1.15;;;42.90;50.80;;;;;;5029461;28;20499;-60
2022/08/19 09:35:01;;;;;;;2.88;0.88;;;42.50;49.80;;;;;;5029724;28;20037;-60
2022/08/19 09:37:27;;;;;;;3.95;1.27;;;42.40;50.90;;;;;;5029830;28;20124;-60
2022/08/19 09:39:53;;;;;;;2.10;1.08;;;42.40;50.90;;;;;;5029346;28;20050;-60
2022/08/19 09:42:19;;;;;;;2.10;1.70;;;42.00;51.00;;;;;;5029390;28;20111;-59
2022/08/19 09:44:46;;;;;;;4.00;1.52;;;41.50;50.70;;;;;;5029158;28;20046;-60
2022/08/19 09:47:13;;;;;;;3.05;1.40;;;41.00;51.20;;;;;;5029119;28;20103;-60
2022/08/19 09:49:40;;;;;;;6.03;1.20;;;40.70;51.30;;;;;;5029312;28;20702;-59
2022/08/19 09:52:08;;;;;;;3.67;1.77;;;40.70;52.30;;;;;;5028995;28;20048;-59
2022/08/19 09:54:34;;;;;;;2.40;2.10;;;40.50;52.00;;;;;;5029683;28;20054;-59
2022/08/19 09:57:00;;;;;;;4.22;2.40;;;40.60;51.10;;;;;;5029435;28;20037;-60
2022/08/19 09:59:27;;;;;;;3.17;2.60;;;40.50;51.90;;;;;;5028201;28;20045;-59
2022/08/19 10:01:53;;;;;;;4.47;2.90;;;40.30;50.20;;;;;;5029106;28;20045;-60
2022/08/19 10:04:20;;;;;;;3.47;2.70;;;40.20;51.30;;;;;;5029373;28;20095;-60
2022/08/19 10:06:48;;;;;;;5.60;2.78;;;39.90;51.40;;;;;;5028843;28;20510;-59
2022/08/19 10:09:16;;;;;;;4.53;3.08;;;39.70;50.70;;;;;;5011398;28;20559;-59
2022/08/19 10:11:47;;;;;;;3.92;2.45;;;39.80;49.80;;;;;;5028693;28;20088;-59
2022/08/19 10:14:14;;;;;;;3.72;2.88;;;39.90;52.10;;;;;;5029023;28;20048;-59
2022/08/19 10:16:41;;;;;;;4.00;2.42;;;40.10;52.20;;;;;;5029114;28;20119;-60
2022/08/19 10:19:09;;;;;;;3.58;2.75;;;39.90;52.10;;;;;;5029153;28;20061;-59
2022/08/19 10:21:35;;;;;;;3.45;2.90;;;39.60;52.50;;;;;;5029529;28;20117;-59
2022/08/19 10:24:03;;;;;;;2.95;2.30;;;39.20;51.70;;;;;;5028646;28;20045;-59
2022/08/19 10:26:33;;;;;;;4.03;2.63;;;39.00;52.70;;;;;;5029009;28;20041;-60
2022/08/19 10:29:00;;;;;;;3.08;2.50;;;38.50;53.30;;;;;;5028684;28;20033;-59
2022/08/19 10:31:28;;;;;;;4.47;2.85;;;37.60;53.00;;;;;;5029146;28;20227;-59
2022/08/19 10:33:57;;;;;;;3.05;2.65;;;37.10;53.70;;;;;;5029004;28;20053;-59
2022/08/19 10:36:26;;;;;;;2.72;2.22;;;36.90;54.10;;;;;;5029033;28;20395;-59
2022/08/19 10:38:56;;;;;;;4.88;2.50;;;37.00;54.50;;;;;;5028886;28;20040;-59
2022/08/19 10:41:24;;;;;;;5.55;3.38;;;37.10;54.80;;;;;;5028936;28;20052;-59
2022/08/19 10:43:58;;;;;;;4.78;3.30;;;37.20;54.10;;;;;;5028511;28;20077;-59
2022/08/19 10:46:26;;;;;;;5.38;2.17;;;37.00;53.10;;;;;;5028962;28;20037;-59
2022/08/19 10:48:53;;;;;;;4.32;3.53;;;36.80;53.80;;;;;;5028980;28;20053;-59
2022/08/19 10:54:05;;;;;;;5.38;3.40;;;35.80;55.80;;;;;;5028250;28;20052;-59
2022/08/19 10:59:21;;;;;;;4.30;3.03;;;34.30;58.80;;;;;;5027982;28;20474;-59
2022/08/19 11:01:48;;;;;;;4.30;3.13;;;33.50;58.70;;;;;;5028174;28;20079;-59
2022/08/19 11:04:17;;;;;;;4.68;3.60;;;33.00;61.10;;;;;;5027796;28;20061;-60
2022/08/19 11:06:47;;;;;;;5.25;3.80;;;32.50;62.50;;;;;;5028152;28;20060;-59
2022/08/19 11:09:24;;;;;;;5.83;4.33;;;31.90;63.00;;;;;;5027550;28;20543;-59
2022/08/19 11:11:52;;;;;;;6.40;4.15;;;31.30;64.20;;;;;;5027706;28;20832;-59
2022/08/19 11:14:20;;;;;;;4.82;3.65;;;30.90;65.20;;;;;;5026852;28;20050;-59
2022/08/19 11:16:47;;;;;;;4.28;3.88;;;30.60;67.10;;;;;;5027594;28;20037;-59
2022/08/19 11:19:15;;;;;;;4.97;3.83;;;30.40;66.30;;;;;;5027393;28;20080;-59
2022/08/19 11:21:44;;;;;;;4.90;4.13;;;30.30;68.40;;;;;;5027881;28;20076;-59
2022/08/19 11:24:16;;;;;;;3.92;3.38;;;30.30;70.30;;;;;;5027630;28;20045;-59
2022/08/19 11:26:43;;;;;;;4.18;3.33;;;30.20;69.10;;;;;;5027364;28;20522;-59
2022/08/19 11:29:12;;;;;;;5.30;2.65;;;30.30;68.50;;;;;;5027079;28;20052;-59
2022/08/19 11:31:40;;;;;;;5.85;3.38;;;30.50;71.30;;;;;;5009552;28;20041;-59
2022/08/19 11:34:09;;;;;;;3.63;3.28;;;30.40;72.20;;;;;;5027141;28;20803;-59
2022/08/19 11:36:37;;;;;;;4.43;3.72;;;30.10;72.20;;;;;;5027885;28;20093;-59
2022/08/19 11:39:06;;;;;;;3.95;3.38;;;29.80;73.70;;;;;;5027457;28;20125;-59
2022/08/19 11:41:31;;;;;;;4.70;3.55;;;29.70;71.80;;;;;;5027573;28;20124;-59
2022/08/19 11:43:57;;;;;;;6.65;3.55;;;29.50;74.40;;;;;;5027159;28;20077;-59
2022/08/19 11:46:25;;;;;;;4.97;4.10;;;29.40;73.60;;;;;;5027367;28;20125;-59
2022/08/19 11:48:51;;;;;;;5.65;4.68;;;29.30;74.70;;;;;;5027332;28;20515;-59
2022/08/19 11:51:21;;;;;;;6.47;4.72;;;29.00;75.20;;;;;;5026917;28;20119;-59
2022/08/19 11:53:47;;;;;;;5.60;4.10;;;28.70;75.60;;;;;;5027106;28;20223;-59
2022/08/19 11:56:13;;;;;;;6.90;4.60;;;28.50;74.70;;;;;;5026884;28;20053;-59
2022/08/19 11:58:41;;;;;;;4.22;3.72;;;28.30;76.10;;;;;;5027096;28;20054;-60
2022/08/19 12:01:10;;;;;;;4.40;3.80;;;28.30;76.80;;;;;;5026900;28;20045;-59
2022/08/19 12:03:37;;;;;;;4.65;4.05;;;28.50;75.40;;;;;;5027262;28;20045;-60
2022/08/19 12:06:07;;;;;;;4.57;3.70;;;28.80;73.70;;;;;;5027017;28;20069;-59
2022/08/19 12:08:33;;;;;;;4.70;3.70;;;29.10;74.20;;;;;;5027343;28;20045;-60
2022/08/19 12:11:00;;;;;;;4.95;4.47;;;29.20;74.80;;;;;;5026641;28;20184;-60
2022/08/19 12:13:27;;;;;;;4.72;4.25;;;29.10;73.50;;;;;;5027319;28;20048;-59
2022/08/19 12:15:53;;;;;;;3.97;3.35;;;29.00;73.20;;;;;;5027020;28;20513;-59
2022/08/19 12:18:19;;;;;;;5.53;3.90;;;29.00;73.10;;;;;;5027059;28;20041;-60
2022/08/19 12:20:47;;;;;;;4.85;4.00;;;29.00;74.60;;;;;;5027194;28;20038;-60
2022/08/19 12:23:13;;;;;;;3.92;3.42;;;29.10;75.20;;;;;;5027029;28;20084;-59
2022/08/19 12:25:51;;;;;;;4.90;4.40;;;29.10;74.80;;;;;;5031081;28;20041;-59
2022/08/19 12:28:22;;;;;;;4.97;4.45;;;29.10;75.40;;;;;;5031274;28;20073;-59
2022/08/19 12:30:50;;;;;;;6.00;4.18;;;28.90;75.70;;;;;;5030714;28;20505;-59
2022/08/19 12:33:23;;;;;;;5.47;4.07;;;28.70;73.50;;;;;;5030876;28;20049;-59
2022/08/19 12:35:50;;;;;;;5.07;4.40;;;28.50;74.80;;;;;;5030800;28;20049;-60
2022/08/19 12:38:16;;;;;;;4.72;4.22;;;28.40;76.00;;;;;;5031037;28;20042;-59
2022/08/19 12:40:45;;;;;;;6.10;4.28;;;28.40;76.90;;;;;;5030963;28;20095;-60
2022/08/19 12:43:11;;;;;;;5.28;4.43;;;28.50;77.20;;;;;;5030802;28;20042;-60
2022/08/19 12:45:37;;;;;;;6.30;4.10;;;28.60;76.50;;;;;;5013547;28;20049;-60
2022/08/19 12:48:04;;;;;;;4.47;4.10;;;28.80;76.60;;;;;;5030510;28;20049;-60
2022/08/19 12:50:30;;;;;;;5.18;4.10;;;28.70;77.60;;;;;;5030552;28;20056;-60
2022/08/19 12:52:57;;;;;;;5.43;4.82;;;28.60;77.70;;;;;;5030771;28;20041;-60
2022/08/19 12:55:24;;;;;;;5.18;4.53;;;28.40;77.60;;;;;;5030436;28;20131;-59
2022/08/19 12:57:50;;;;;;;4.75;4.22;;;28.10;77.80;;;;;;5030769;28;20044;-60
2022/08/19 13:00:20;;;;;;;5.75;5.22;;;28.00;78.20;;;;;;5030138;28;20046;-60
2022/08/19 13:02:49;;;;;;;5.78;4.80;;;27.80;79.90;;;;;;5030523;28;20082;-60
2022/08/19 13:05:20;;;;;;;7.47;4.95;;;27.70;80.60;;;;;;5030036;28;20045;-60
2022/08/19 13:07:46;;;;;;;5.32;4.82;;;27.50;81.20;;;;;;5030610;28;20134;-60
2022/08/19 13:10:15;;;;;;;5.68;5.10;;;27.40;81.50;;;;;;5029697;28;20095;-60
2022/08/19 13:12:42;;;;;;;4.70;4.28;;;27.30;82.20;;;;;;5030009;28;20053;-59